No se requiere un especial cuidado respecto a la situación meteorológica.   -   No hay avisos

Informes METAR

 

LEZL - Sevilla, Spain
Distancia de la estación: ENE 8km
Actualización: 28/06/2017 20:30
Poco nuboso
Poco nuboso
 Viento de SO
Viento: SO 28 km/h
Temperatura: 26°C
Rocío: 17°C
Humedad: 58%
Barómetro: 1013 hPa
Nubes: Poco nuboso
Visibilidad: 10 km
Detalles de las nubes: Poco nuboso 1372 m
2017/06/28 18:30 LEZL 281830Z 22015KT 9999 FEW045 26/17 Q1013 NOSIG
LEMO - Morón, Spain
Distancia de la estación: SE 43km
Actualización: 28/06/2017 21:00
Poco nuboso
Poco nuboso
 Viento de OSO
Viento: OSO 28 km/h
Temperatura: 24°C
Rocío: 17°C
Humedad: 65%
Barómetro: 1014 hPa
Nubes: Poco nuboso
Visibilidad: 10 km
Detalles de las nubes: Poco nuboso 1067 m
2017/06/28 19:00 LEMO 281900Z 24015KT 200V270 9999 FEW035 24/17 Q1014 NOSIG
LEJR - Jeréz, Spain
Distancia de la estación: S 71km
Actualización: 28/06/2017 21:00
Poco nuboso
Poco nuboso
 Viento de OSO
Viento: OSO 26 km/h
Temperatura: 24°C
Rocío: 19°C
Humedad: 74%
Barómetro: 1014 hPa
Nubes: Poco nuboso
Visibilidad: 10 km
Detalles de las nubes: Poco nuboso 671 m
2017/06/28 19:00 LEJR 281900Z 25014KT 9999 FEW022 24/19 Q1014
 
LERT - Rota, Spain
Distancia de la estación: SSO 89km
Actualización: 28/06/2017 20:00
Parcialmente nuboso
Parcialmente nuboso
 Viento de O
Viento: O 35 km/h
Temperatura: 23°C
Rocío: 19°C
Humedad: 78%
Barómetro: 1015 hPa
Nubes: Parcialmente nuboso
Visibilidad: 10 km
Detalles de las nubes: Poco nuboso 518 m
Parcialmente nuboso 701 m
2017/06/28 18:00 LERT 281800Z 26019KT 9999 FEW017 SCT023 23/19 Q1015 NOSIG
LEMG - Málaga, Spain
Distancia de la estación: ESE 157km
Actualización: 28/06/2017 21:00
Parcialmente nuboso
Parcialmente nuboso
 Viento de ONO
Viento: ONO 30 km/h
Temperatura: 28°C
Índice de calor: 28°C
Rocío: 14°C
Humedad: 42%
Barómetro: 1012 hPa
Nubes: Parcialmente nuboso
Visibilidad: 10 km
Detalles de las nubes: Parcialmente nuboso 1524 m
2017/06/28 19:00 LEMG 281900Z 29016KT 250V320 9999 SCT050 28/14 Q1012 NOSIG
LEBA - Córdoba, Spain
Distancia de la estación: ENE 115km
Actualización: 28/06/2017 21:00
Despejado
Despejado
 Viento de OSO
Viento: OSO 19 km/h
Temperatura: 27°C
Índice de calor: 27°C
Rocío: 13°C
Humedad: 42%
Barómetro: 1012 hPa
Nubes: Despejado
Visibilidad: 10 km
2017/06/28 19:00 LEBA 281900Z AUTO 25010KT 190V280 9999 NCD 27/13 Q1012
 
LEGR - Granada, Spain
Distancia de la estación: E 198km
Actualización: 28/06/2017 21:00
Poco nuboso
Poco nuboso
 Viento de ONO
Viento: ONO 22 km/h, Racha: 41 km/h
Temperatura: 25°C
Rocío: 13°C
Humedad: 47%
Barómetro: 1014 hPa
Nubes: Poco nuboso
Visibilidad: 10 km
Detalles de las nubes: Poco nuboso 1524 m
2017/06/28 19:00 LEGR 281900Z 29012G22KT 260V320 9999 FEW050 25/13 Q1014
LEAM - Almería, Spain
Distancia de la estación: E 326km
Actualización: 28/06/2017 21:00
Despejado
Despejado
 Viento de OSO
Viento: OSO 37 km/h
Temperatura: 23°C
Rocío: 16°C
Humedad: 65%
Barómetro: 1008 hPa
Resumen: Despejado
Visibilidad: mayor de 10 km
2017/06/28 19:00 LEAM 281900Z 24020KT CAVOK 23/16 Q1008
LEMD - Madrid/Barajas, Spain
Distancia de la estación: NNE 402km
Actualización: 28/06/2017 21:00
Parcialmente nuboso
Parcialmente nuboso
 Viento de O
Viento: O 28 km/h
Temperatura: 24°C
Rocío: 5°C
Humedad: 29%
Barómetro: 1010 hPa
Nubes: Parcialmente nuboso
Visibilidad: 10 km
Detalles de las nubes: Parcialmente nuboso 2134 m
2017/06/28 19:00 LEMD 281900Z 27015KT 220V300 9999 SCT070 24/05 Q1010 NOSIG
 
LEVD - Valladolid, Spain
Distancia de la estación: N 492km
Actualización: 28/06/2017 21:00
Despejado
Despejado
 Viento de O
Viento: O 28 km/h
Temperatura: 17°C
Rocío: 6°C
Humedad: 49%
Barómetro: 1012 hPa
Resumen: Despejado
Visibilidad: mayor de 10 km
2017/06/28 19:00 LEVD 281900Z 28015KT CAVOK 17/06 Q1012
LEBL - Barcelona, Spain
Distancia de la estación: NE 816km
Actualización: 28/06/2017 21:00
Poco nuboso
Poco nuboso
 Viento de NO
Viento: NO 9 km/h
Temperatura: 23°C
Rocío: 17°C
Humedad: 69%
Barómetro: 1004 hPa
Nubes: Poco nuboso
Visibilidad: 10 km
Detalles de las nubes: Poco nuboso 457 m
2017/06/28 19:00 LEBL 281900Z 31005KT 9999 FEW015 23/17 Q1004 NOSIG
LEVC - Valencia, Spain
Distancia de la estación: ENE 535km
Actualización: 28/06/2017 21:00
Poco nuboso
Poco nuboso
 Viento de O
Viento: O 39 km/h, Racha: 59 km/h
Temperatura: 30°C
Rocío: 9°C
Humedad: 27%
Barómetro: 1005 hPa
Nubes: Poco nuboso
Visibilidad: 10 km
Detalles de las nubes: Poco nuboso 914 m
2017/06/28 19:00 LEVC 281900Z 26021G32KT 230V290 9999 FEW030 30/09 Q1005 NOSIG